createdAt,value
2018-06-23T00:00:55.464Z,99.90
2018-06-23T00:03:24.231Z,99.90
2018-06-23T00:05:53.022Z,99.90
2018-06-23T00:08:21.791Z,99.90
2018-06-23T00:10:50.582Z,99.90
2018-06-23T00:13:19.389Z,99.90
2018-06-23T00:15:48.530Z,99.90
2018-06-23T00:18:17.301Z,99.90
2018-06-23T00:20:46.066Z,99.90
2018-06-23T00:23:14.850Z,99.90
2018-06-23T00:25:48.838Z,99.90
2018-06-23T00:28:17.681Z,99.90
2018-06-23T00:30:46.473Z,99.90
2018-06-23T00:33:15.231Z,99.90
2018-06-23T00:35:44.357Z,99.90
2018-06-23T00:38:13.130Z,99.90
2018-06-23T00:40:41.889Z,99.90
2018-06-23T00:43:10.668Z,99.90
2018-06-23T00:45:39.541Z,99.90
2018-06-23T00:48:08.383Z,99.90
2018-06-23T00:50:37.159Z,99.90
2018-06-23T00:53:06.030Z,99.90
2018-06-23T00:55:34.797Z,99.90
2018-06-23T00:58:03.558Z,99.90
2018-06-23T01:00:32.330Z,99.90
2018-06-23T01:03:01.079Z,99.90
2018-06-23T01:05:29.914Z,99.90
2018-06-23T01:07:58.766Z,99.90
2018-06-23T01:10:27.594Z,99.90
2018-06-23T01:12:56.372Z,99.90
2018-06-23T01:15:25.207Z,99.90
2018-06-23T01:17:54.100Z,99.90
2018-06-23T01:20:22.881Z,99.90
2018-06-23T01:22:51.650Z,99.90
2018-06-23T01:25:20.422Z,99.90
2018-06-23T01:27:49.193Z,99.90
2018-06-23T01:30:18.882Z,99.90
2018-06-23T01:32:47.682Z,99.90
2018-06-23T01:35:17.218Z,99.90
2018-06-23T01:37:45.982Z,99.90
2018-06-23T01:40:14.750Z,99.90
2018-06-23T01:42:43.553Z,99.90
2018-06-23T01:45:12.294Z,99.90
2018-06-23T01:47:41.070Z,99.90
2018-06-23T01:50:09.879Z,99.90
2018-06-23T01:52:38.669Z,99.90
2018-06-23T01:55:07.462Z,99.90
2018-06-23T01:57:36.211Z,99.90
2018-06-23T02:00:05.058Z,99.90
2018-06-23T02:02:33.834Z,99.90
2018-06-23T02:05:02.641Z,99.90
2018-06-23T02:07:31.402Z,99.90
2018-06-23T02:10:00.214Z,99.90
2018-06-23T02:12:29.005Z,99.90
2018-06-23T02:17:36.839Z,99.90
2018-06-23T02:20:10.875Z,99.90
2018-06-23T02:22:44.969Z,99.90
2018-06-23T02:25:19.054Z,99.90
2018-06-23T02:27:52.893Z,99.90
2018-06-23T02:30:28.742Z,99.90
2018-06-23T02:33:01.743Z,99.90
2018-06-23T02:35:30.550Z,99.90
2018-06-23T02:37:59.386Z,99.90
2018-06-23T02:40:28.237Z,99.90
2018-06-23T02:42:57.035Z,99.90
2018-06-23T02:45:25.813Z,99.90
2018-06-23T02:47:54.584Z,99.90
2018-06-23T02:50:23.464Z,99.90
2018-06-23T02:52:52.250Z,99.90
2018-06-23T02:55:21.033Z,99.90
2018-06-23T02:57:49.815Z,99.90
2018-06-23T03:00:18.624Z,99.90
2018-06-23T03:02:47.389Z,99.90
2018-06-23T03:05:16.190Z,99.90
2018-06-23T03:07:44.981Z,99.90
2018-06-23T03:10:13.800Z,99.90
2018-06-23T03:12:42.623Z,99.90
2018-06-23T03:15:12.874Z,99.90
2018-06-23T03:17:41.630Z,99.90
2018-06-23T03:20:10.517Z,99.90
2018-06-23T03:22:39.287Z,99.90
2018-06-23T03:25:08.134Z,99.90
2018-06-23T03:27:36.914Z,99.90
2018-06-23T03:30:06.214Z,99.90
2018-06-23T03:32:34.985Z,99.90
2018-06-23T03:35:03.837Z,99.90
2018-06-23T03:37:32.662Z,99.90
2018-06-23T03:40:01.455Z,99.90
2018-06-23T03:42:30.286Z,99.90
2018-06-23T03:44:59.131Z,99.90
2018-06-23T03:47:28.002Z,99.90
2018-06-23T03:49:56.799Z,99.90
2018-06-23T03:52:25.562Z,99.90
2018-06-23T03:54:54.397Z,99.90
2018-06-23T03:57:23.198Z,99.90
2018-06-23T03:59:52.024Z,99.90
2018-06-23T04:02:20.818Z,99.90
2018-06-23T04:04:49.547Z,99.90
2018-06-23T04:07:18.359Z,99.90
2018-06-23T04:09:47.126Z,99.90
2018-06-23T04:12:15.910Z,99.90
2018-06-23T04:14:44.698Z,99.90
2018-06-23T04:17:13.490Z,99.90
2018-06-23T04:19:42.304Z,99.90
2018-06-23T04:22:11.122Z,99.90
2018-06-23T04:24:39.871Z,99.90
2018-06-23T04:27:08.638Z,99.90
2018-06-23T04:29:37.422Z,99.90
2018-06-23T04:32:06.205Z,99.90
2018-06-23T04:34:34.974Z,99.90
2018-06-23T04:37:03.742Z,99.90
2018-06-23T04:39:32.502Z,99.90
2018-06-23T04:42:01.282Z,99.90
2018-06-23T04:44:30.083Z,99.90
2018-06-23T04:46:58.895Z,99.90
2018-06-23T04:49:27.667Z,99.90
2018-06-23T04:51:56.490Z,99.90
2018-06-23T04:54:25.294Z,99.90
2018-06-23T04:56:54.177Z,99.90
2018-06-23T04:59:22.950Z,99.90
2018-06-23T05:01:51.718Z,99.90
2018-06-23T05:04:20.517Z,99.90
2018-06-23T05:06:49.315Z,99.90
2018-06-23T05:09:18.098Z,99.90
2018-06-23T05:11:46.886Z,99.90
2018-06-23T05:14:15.791Z,99.90
2018-06-23T05:16:44.594Z,99.90
2018-06-23T05:19:13.461Z,99.90
2018-06-23T05:21:42.222Z,99.90
2018-06-23T05:24:11.030Z,99.90
2018-06-23T05:26:39.934Z,99.90
2018-06-23T05:29:08.702Z,99.90
2018-06-23T05:31:37.536Z,99.90
2018-06-23T05:34:06.455Z,99.90
2018-06-23T05:36:35.242Z,99.90
2018-06-23T05:39:06.026Z,99.90
2018-06-23T05:41:34.807Z,99.90
2018-06-23T05:44:03.580Z,99.90
2018-06-23T05:46:32.372Z,99.90
2018-06-23T05:49:01.151Z,99.90
2018-06-23T05:51:29.938Z,99.90
2018-06-23T05:53:58.792Z,99.90
2018-06-23T05:56:27.651Z,99.90
2018-06-23T05:58:57.042Z,99.90
2018-06-23T06:01:25.813Z,99.90
2018-06-23T06:03:54.646Z,99.90
2018-06-23T06:06:23.427Z,99.90
2018-06-23T06:08:52.207Z,99.90
2018-06-23T06:11:21.010Z,99.90
2018-06-23T06:13:49.810Z,99.90
2018-06-23T06:16:23.070Z,99.90
2018-06-23T06:18:51.832Z,99.90
2018-06-23T06:21:20.720Z,99.90
2018-06-23T06:23:49.540Z,99.90
2018-06-23T06:26:18.305Z,99.90
2018-06-23T06:28:47.091Z,99.90
2018-06-23T06:31:15.863Z,99.90
2018-06-23T06:33:45.035Z,99.90
2018-06-23T06:36:13.865Z,99.90
2018-06-23T06:38:42.634Z,99.90
2018-06-23T06:41:11.406Z,99.90
2018-06-23T06:43:40.210Z,99.90
2018-06-23T06:46:09.201Z,99.90
2018-06-23T06:48:37.958Z,99.90
2018-06-23T06:53:35.320Z,99.90
2018-06-23T06:56:04.143Z,99.90
2018-06-23T06:58:32.919Z,99.90
2018-06-23T07:01:01.714Z,99.90
2018-06-23T07:03:30.529Z,99.90
2018-06-23T07:05:59.331Z,99.90
2018-06-23T07:08:28.163Z,99.90
2018-06-23T07:10:56.966Z,99.90
2018-06-23T07:13:25.747Z,99.90
2018-06-23T07:15:54.566Z,99.90
2018-06-23T07:18:23.335Z,99.90
2018-06-23T07:20:52.101Z,99.90
2018-06-23T07:23:20.902Z,99.90
2018-06-23T07:25:49.675Z,99.90
2018-06-23T07:28:18.463Z,99.90
2018-06-23T07:30:47.339Z,99.90
2018-06-23T07:33:16.091Z,99.90
2018-06-23T07:35:44.890Z,99.90
2018-06-23T07:38:13.690Z,99.90
2018-06-23T07:40:42.509Z,99.90
2018-06-23T07:43:11.350Z,99.90
2018-06-23T07:45:40.202Z,99.90
2018-06-23T07:48:08.997Z,99.90
2018-06-23T07:50:37.785Z,99.90
2018-06-23T07:53:06.603Z,99.90
2018-06-23T07:55:35.430Z,99.90
2018-06-23T07:58:04.461Z,99.60
2018-06-23T08:00:33.378Z,99.50
2018-06-23T08:03:02.241Z,99.50
2018-06-23T08:05:31.031Z,99.90
2018-06-23T08:07:59.974Z,99.50
2018-06-23T08:10:28.777Z,99.30
2018-06-23T08:12:57.650Z,99.90
2018-06-23T08:15:26.500Z,99.90
2018-06-23T08:17:55.328Z,99.90
2018-06-23T08:20:24.151Z,99.90
2018-06-23T08:22:52.948Z,99.80
2018-06-23T08:25:21.754Z,99.90
2018-06-23T08:27:50.558Z,99.90
2018-06-23T08:30:19.406Z,99.20
2018-06-23T08:32:48.218Z,99.20
2018-06-23T08:35:17.290Z,98.70
2018-06-23T08:37:46.101Z,99.10
2018-06-23T08:40:14.985Z,99.90
2018-06-23T08:42:43.888Z,99.90
2018-06-23T08:45:12.703Z,99.40
2018-06-23T08:47:41.586Z,98.30
2018-06-23T08:50:10.483Z,97.50
2018-06-23T08:52:39.299Z,96.70
2018-06-23T08:55:08.191Z,97.10
2018-06-23T08:57:37.003Z,96.50
2018-06-23T09:00:06.292Z,96.10
2018-06-23T09:02:35.083Z,93.20
2018-06-23T09:05:03.934Z,90.00
2018-06-23T09:07:32.743Z,90.30
2018-06-23T09:10:01.599Z,91.00
2018-06-23T09:12:31.191Z,87.40
2018-06-23T09:15:00.032Z,85.90
2018-06-23T09:17:28.887Z,83.10
2018-06-23T09:19:57.683Z,84.40
2018-06-23T09:22:26.618Z,90.30
2018-06-23T09:24:55.422Z,90.50
2018-06-23T09:27:24.206Z,93.30
2018-06-23T09:29:52.994Z,93.90
2018-06-23T09:32:21.778Z,95.10
2018-06-23T09:34:50.558Z,93.10
2018-06-23T09:37:19.422Z,93.50
2018-06-23T09:39:50.998Z,93.90
2018-06-23T09:42:19.794Z,94.90
2018-06-23T09:44:48.618Z,95.50
2018-06-23T09:47:17.398Z,95.60
2018-06-23T09:49:46.252Z,96.90
2018-06-23T09:52:15.159Z,94.80
2018-06-23T09:54:43.941Z,96.60
2018-06-23T09:57:12.722Z,96.30
2018-06-23T09:59:41.537Z,95.50
2018-06-23T10:04:38.861Z,95.20
2018-06-23T10:07:07.750Z,94.50
2018-06-23T10:09:36.573Z,94.30
2018-06-23T10:12:05.418Z,94.60
2018-06-23T10:14:34.203Z,94.50
2018-06-23T10:17:02.982Z,93.80
2018-06-23T10:19:31.738Z,94.10
2018-06-23T10:24:28.944Z,94.10
2018-06-23T10:26:57.720Z,93.70
2018-06-23T10:29:26.541Z,94.30
2018-06-23T10:31:55.412Z,94.30
2018-06-23T10:34:24.266Z,93.60
2018-06-23T10:36:53.194Z,93.80
2018-06-23T10:39:22.018Z,92.00
2018-06-23T10:41:50.852Z,92.70
2018-06-23T10:44:19.739Z,91.90
2018-06-23T10:46:48.516Z,91.70
2018-06-23T10:49:17.304Z,91.30
2018-06-23T10:51:46.101Z,91.40
2018-06-23T10:54:14.886Z,91.30
2018-06-23T10:56:43.687Z,93.40
2018-06-23T10:59:12.449Z,92.30
2018-06-23T11:01:41.229Z,92.60
2018-06-23T11:04:10.094Z,92.50
2018-06-23T11:06:38.930Z,92.50
2018-06-23T11:09:09.662Z,91.50
2018-06-23T11:11:38.678Z,92.00
2018-06-23T11:14:07.498Z,91.00
2018-06-23T11:16:36.595Z,91.40
2018-06-23T11:19:05.414Z,92.00
2018-06-23T11:21:34.326Z,92.20
2018-06-23T11:24:03.106Z,91.60
2018-06-23T11:26:31.955Z,90.50
2018-06-23T11:29:00.845Z,91.70
2018-06-23T11:31:29.714Z,90.20
2018-06-23T11:33:58.494Z,91.90
2018-06-23T11:36:27.298Z,89.90
2018-06-23T11:38:56.098Z,90.30
2018-06-23T11:43:53.270Z,90.50
2018-06-23T11:46:22.089Z,90.00
2018-06-23T11:48:50.864Z,90.20
2018-06-23T11:51:19.637Z,90.60
2018-06-23T11:53:48.449Z,89.40
2018-06-23T11:56:17.228Z,88.90
2018-06-23T11:58:46.016Z,90.70
2018-06-23T12:01:14.798Z,91.60
2018-06-23T12:03:43.594Z,91.40
2018-06-23T12:06:12.394Z,89.90
2018-06-23T12:08:41.183Z,88.10
2018-06-23T12:11:09.973Z,89.60
2018-06-23T12:13:38.762Z,84.50
2018-06-23T12:16:07.602Z,85.50
2018-06-23T12:18:36.399Z,89.00
2018-06-23T12:21:05.282Z,90.50
2018-06-23T12:23:34.075Z,87.00
2018-06-23T12:26:02.927Z,87.80
2018-06-23T12:28:31.738Z,85.60
2018-06-23T12:31:00.510Z,83.10
2018-06-23T12:35:57.732Z,77.90
2018-06-23T12:38:26.555Z,76.30
2018-06-23T12:40:55.335Z,78.30
2018-06-23T12:43:24.134Z,81.00
2018-06-23T12:45:52.978Z,83.20
2018-06-23T12:48:21.806Z,83.00
2018-06-23T12:50:50.589Z,82.10
2018-06-23T12:53:19.376Z,81.00
2018-06-23T12:55:48.186Z,83.70
2018-06-23T12:58:17.017Z,84.50
2018-06-23T13:00:45.822Z,84.90
2018-06-23T13:03:14.578Z,82.20
2018-06-23T13:05:43.378Z,80.40
2018-06-23T13:08:12.165Z,80.40
2018-06-23T13:10:40.957Z,80.10
2018-06-23T13:13:09.753Z,79.50
2018-06-23T13:15:38.570Z,78.30
2018-06-23T13:18:08.136Z,77.20
2018-06-23T13:20:36.924Z,78.30
2018-06-23T13:23:05.750Z,78.20
2018-06-23T13:25:34.586Z,74.80
2018-06-23T13:28:03.400Z,69.90
2018-06-23T13:30:32.202Z,65.90
2018-06-23T13:33:00.978Z,66.70
2018-06-23T13:35:29.843Z,66.40
2018-06-23T13:37:58.614Z,68.50
2018-06-23T13:40:27.433Z,64.00
2018-06-23T13:42:56.314Z,60.60
2018-06-23T13:45:25.192Z,58.10
2018-06-23T13:47:53.984Z,57.30
2018-06-23T13:50:22.786Z,56.40
2018-06-23T13:52:51.570Z,57.00
2018-06-23T13:55:20.380Z,57.10
2018-06-23T13:57:49.186Z,58.80
2018-06-23T14:00:17.999Z,57.80
2018-06-23T14:02:46.775Z,64.10
2018-06-23T14:07:43.987Z,67.70
2018-06-23T14:10:12.776Z,67.70
2018-06-23T14:12:41.550Z,69.30
2018-06-23T14:15:10.514Z,70.80
2018-06-23T14:20:07.798Z,69.50
2018-06-23T14:22:36.674Z,68.90
2018-06-23T14:25:05.502Z,71.30
2018-06-23T14:27:34.286Z,70.60
2018-06-23T14:30:03.130Z,72.20
2018-06-23T14:32:31.980Z,73.40
2018-06-23T14:35:00.755Z,75.70
2018-06-23T14:37:29.628Z,78.20
2018-06-23T14:39:58.455Z,76.50
2018-06-23T14:42:27.246Z,74.90
2018-06-23T14:44:56.067Z,75.10
2018-06-23T14:47:24.886Z,74.80
2018-06-23T14:49:53.654Z,74.10
2018-06-23T14:52:22.491Z,74.00
2018-06-23T14:54:51.233Z,72.40
2018-06-23T14:57:20.070Z,72.90
2018-06-23T14:59:48.884Z,74.60
2018-06-23T15:02:17.692Z,74.60
2018-06-23T15:04:46.500Z,75.10
2018-06-23T15:07:15.284Z,75.80
2018-06-23T15:09:55.264Z,76.40
2018-06-23T15:12:35.168Z,78.00
2018-06-23T15:15:04.250Z,77.70
2018-06-23T15:17:33.270Z,77.00
2018-06-23T15:20:02.062Z,77.00
2018-06-23T15:22:30.882Z,78.30
2018-06-23T15:25:00.607Z,77.10
2018-06-23T15:27:29.390Z,78.50
2018-06-23T15:29:58.187Z,81.00
2018-06-23T15:32:26.959Z,81.20
2018-06-23T15:34:55.742Z,81.60
2018-06-23T15:37:24.522Z,82.20
2018-06-23T15:39:53.326Z,82.60
2018-06-23T15:42:22.105Z,83.70
2018-06-23T15:44:51.459Z,85.40
2018-06-23T15:47:20.286Z,86.40
2018-06-23T15:49:49.090Z,87.50
2018-06-23T15:52:17.901Z,87.00
2018-06-23T15:54:46.691Z,87.20
2018-06-23T15:57:15.515Z,88.20
2018-06-23T15:59:44.349Z,88.00
2018-06-23T16:02:13.151Z,88.80
2018-06-23T16:04:41.943Z,88.20
2018-06-23T16:07:10.813Z,89.10
2018-06-23T16:12:08.020Z,89.30
2018-06-23T16:14:36.850Z,89.90
2018-06-23T16:17:05.726Z,89.90
2018-06-23T16:19:34.570Z,89.80
2018-06-23T16:22:03.351Z,87.50
2018-06-23T16:24:32.178Z,87.30
2018-06-23T16:27:00.958Z,88.10
2018-06-23T16:29:29.865Z,86.80
2018-06-23T16:31:58.614Z,85.90
2018-06-23T16:34:27.463Z,86.90
2018-06-23T16:36:56.190Z,86.80
2018-06-23T16:39:25.349Z,87.40
2018-06-23T16:41:54.443Z,87.60
2018-06-23T16:44:23.251Z,88.90
2018-06-23T16:46:52.061Z,88.40
2018-06-23T16:49:20.872Z,89.30
2018-06-23T16:51:49.654Z,89.40
2018-06-23T16:54:18.426Z,89.70
2018-06-23T16:56:47.204Z,90.40
2018-06-23T16:59:15.997Z,89.70
2018-06-23T17:01:44.786Z,90.10
2018-06-23T17:04:13.726Z,90.00
2018-06-23T17:06:42.504Z,89.80
2018-06-23T17:09:11.560Z,87.80
2018-06-23T17:11:40.937Z,88.10
2018-06-23T17:14:09.810Z,89.20
2018-06-23T17:16:38.670Z,90.20
2018-06-23T17:19:07.543Z,89.30
2018-06-23T17:21:36.325Z,90.20
2018-06-23T17:24:05.207Z,90.20
2018-06-23T17:26:33.974Z,90.90
2018-06-23T17:29:02.763Z,90.90
2018-06-23T17:31:31.677Z,90.90
2018-06-23T17:34:00.459Z,92.50
2018-06-23T17:36:29.310Z,94.00
2018-06-23T17:38:58.095Z,94.70
2018-06-23T17:41:26.878Z,94.90
2018-06-23T17:43:55.647Z,95.10
2018-06-23T17:46:24.438Z,95.10
2018-06-23T17:48:53.234Z,95.90
2018-06-23T17:51:22.042Z,95.80
2018-06-23T17:53:50.850Z,95.00
2018-06-23T17:56:19.654Z,95.10
2018-06-23T17:58:48.510Z,95.90
2018-06-23T18:01:17.382Z,96.30
2018-06-23T18:03:46.221Z,95.50
2018-06-23T18:06:15.051Z,95.60
2018-06-23T18:08:45.660Z,96.00
2018-06-23T18:11:14.648Z,95.70
2018-06-23T18:13:43.441Z,95.30
2018-06-23T18:16:12.238Z,95.60
2018-06-23T18:18:47.446Z,95.60
2018-06-23T18:21:16.215Z,95.60
2018-06-23T18:23:45.212Z,95.70
2018-06-23T18:26:14.103Z,96.20
2018-06-23T18:28:42.865Z,96.40
2018-06-23T18:31:11.629Z,96.50
2018-06-23T18:33:40.465Z,96.40
2018-06-23T18:36:09.353Z,96.20
2018-06-23T18:41:06.802Z,95.80
2018-06-23T18:43:35.614Z,96.70
2018-06-23T18:46:04.508Z,97.00
2018-06-23T18:48:33.319Z,97.40
2018-06-23T18:51:02.154Z,96.80
2018-06-23T18:53:30.986Z,97.20
2018-06-23T18:55:59.830Z,97.50
2018-06-23T18:58:28.902Z,97.80
2018-06-23T19:00:57.763Z,97.90
2018-06-23T19:03:26.573Z,97.70
2018-06-23T19:05:55.394Z,98.00
2018-06-23T19:08:24.245Z,98.30
2018-06-23T19:10:53.099Z,98.80
2018-06-23T19:13:21.877Z,98.30
2018-06-23T19:15:50.716Z,97.60
2018-06-23T19:18:19.562Z,97.40
2018-06-23T19:20:48.379Z,97.40
2018-06-23T19:23:17.194Z,97.80
2018-06-23T19:25:45.998Z,97.90
2018-06-23T19:28:14.889Z,97.80
2018-06-23T19:30:43.682Z,97.90
2018-06-23T19:33:12.542Z,97.70
2018-06-23T19:35:41.604Z,98.00
2018-06-23T19:38:10.384Z,98.00
2018-06-23T19:40:39.228Z,98.10
2018-06-23T19:43:08.036Z,97.70
2018-06-23T19:45:36.866Z,98.00
2018-06-23T19:48:05.654Z,98.40
2018-06-23T19:50:34.440Z,98.30
2018-06-23T19:53:03.214Z,97.70
2018-06-23T19:55:32.134Z,97.90
2018-06-23T19:58:17.291Z,98.10
2018-06-23T20:01:06.998Z,97.30
2018-06-23T20:04:54.602Z,97.40
2018-06-23T20:10:06.925Z,98.10
2018-06-23T20:12:35.754Z,97.90
2018-06-23T20:15:04.662Z,98.30
2018-06-23T20:17:33.430Z,98.80
2018-06-23T20:20:02.246Z,99.10
2018-06-23T20:22:31.025Z,98.50
2018-06-23T20:25:00.135Z,98.30
2018-06-23T20:27:28.958Z,98.20
2018-06-23T20:29:57.909Z,98.50
2018-06-23T20:32:26.679Z,98.00
2018-06-23T20:34:55.472Z,98.50
2018-06-23T20:37:24.270Z,98.00
2018-06-23T20:39:53.061Z,98.20
2018-06-23T20:42:21.846Z,98.20
2018-06-23T20:44:50.647Z,98.70
2018-06-23T20:47:19.455Z,99.30
2018-06-23T20:49:48.273Z,99.60
2018-06-23T20:52:17.086Z,99.60
2018-06-23T20:54:45.891Z,99.30
2018-06-23T20:57:14.690Z,99.70
2018-06-23T20:59:43.566Z,99.60
2018-06-23T21:02:12.358Z,99.50
2018-06-23T21:04:41.190Z,99.70
2018-06-23T21:07:10.034Z,99.80
2018-06-23T21:09:38.886Z,99.20
2018-06-23T21:12:07.703Z,99.50
2018-06-23T21:14:36.495Z,99.40
2018-06-23T21:17:05.666Z,99.40
2018-06-23T21:19:34.460Z,99.30
2018-06-23T21:22:03.254Z,99.60
2018-06-23T21:24:32.048Z,99.00
2018-06-23T21:27:00.878Z,99.20
2018-06-23T21:29:29.681Z,99.30
2018-06-23T21:31:58.483Z,99.10
2018-06-23T21:34:27.262Z,99.30
2018-06-23T21:36:56.046Z,99.30
2018-06-23T21:39:24.855Z,99.30
2018-06-23T21:41:53.632Z,99.50
2018-06-23T21:44:22.540Z,99.60
2018-06-23T21:46:51.314Z,99.20
2018-06-23T21:49:20.128Z,99.30
2018-06-23T21:51:48.912Z,98.90
2018-06-23T21:54:17.790Z,99.10
2018-06-23T21:56:46.620Z,99.60
2018-06-23T21:59:15.414Z,99.40
2018-06-23T22:01:44.248Z,99.60
2018-06-23T22:04:13.061Z,99.70
2018-06-23T22:06:42.107Z,99.90
2018-06-23T22:09:11.759Z,99.30
2018-06-23T22:11:40.554Z,98.90
2018-06-23T22:14:09.406Z,99.30
2018-06-23T22:16:38.218Z,99.10
2018-06-23T22:19:07.086Z,99.10
2018-06-23T22:21:35.882Z,98.40
2018-06-23T22:24:04.727Z,98.80
2018-06-23T22:26:33.570Z,98.50
2018-06-23T22:29:02.392Z,98.80
2018-06-23T22:31:31.178Z,98.40
2018-06-23T22:33:59.973Z,98.70
2018-06-23T22:36:28.798Z,99.40
2018-06-23T22:38:57.570Z,99.80
2018-06-23T22:41:26.350Z,99.80
2018-06-23T22:43:55.146Z,99.90
2018-06-23T22:46:23.992Z,98.80
2018-06-23T22:48:52.786Z,99.30
2018-06-23T22:51:21.570Z,99.20
2018-06-23T22:53:50.350Z,99.70
2018-06-23T22:56:19.176Z,99.90
2018-06-23T22:58:47.970Z,99.90
2018-06-23T23:01:16.758Z,99.90
2018-06-23T23:03:45.587Z,99.90
2018-06-23T23:06:14.461Z,99.90
2018-06-23T23:08:43.234Z,99.90
2018-06-23T23:11:12.031Z,99.90
2018-06-23T23:13:40.874Z,99.90
2018-06-23T23:16:09.745Z,99.90
2018-06-23T23:18:38.562Z,99.90
2018-06-23T23:21:07.348Z,99.90
2018-06-23T23:23:36.396Z,99.90
2018-06-23T23:26:05.220Z,99.90
2018-06-23T23:28:33.948Z,99.90
2018-06-23T23:31:02.791Z,99.90
2018-06-23T23:33:31.566Z,99.90
2018-06-23T23:36:00.370Z,99.90
2018-06-23T23:38:29.134Z,99.90
2018-06-23T23:40:57.926Z,99.90
2018-06-23T23:43:26.714Z,99.90
2018-06-23T23:45:55.502Z,99.90
2018-06-23T23:48:24.262Z,99.90
2018-06-23T23:50:53.046Z,99.90
2018-06-23T23:53:21.853Z,99.90
2018-06-23T23:55:50.713Z,99.90
2018-06-23T23:58:19.531Z,99.90
